Time;durP1;ratioP1;P1;durP2;ratioP2;P2;SDS_P1;SDS_P2;PMS_P1;PMS_P2;Temp;Humidity;BMP_temperature;BMP_pressure;BME280_temperature;BME280_humidity;BME280_pressure;Samples;Min_cycle;Max_cycle;Signal;HPM_P1;HPM_P2
2023/07/27 00:01:53;;;;;;;45.57;2.77;;;;;;;25.49;55.14;99136.88;7314920;19;129113;-36
2023/07/27 00:04:21;;;;;;;94.33;5.40;;;;;;;25.49;55.42;99128.97;7312491;19;130585;-33
2023/07/27 00:06:47;;;;;;;58.40;3.40;;;;;;;25.49;56.05;99128.97;7316807;19;128904;-34
2023/07/27 00:09:12;;;;;;;30.40;1.83;;;;;;;25.52;56.00;99139.16;7316314;19;129108;-34
2023/07/27 00:11:38;;;;;;;28.37;1.73;;;;;;;25.53;55.76;99132.91;7315127;19;129784;-38
2023/07/27 00:14:03;;;;;;;28.03;1.57;;;;;;;25.42;55.35;99104.38;7313309;19;128995;-31
2023/07/27 00:16:28;;;;;;;30.53;1.67;;;;;;;25.53;55.86;99128.47;7316462;19;128910;-34
2023/07/27 00:18:54;;;;;;;61.33;3.70;;;;;;;25.50;55.57;99117.47;7314132;19;129448;-31
2023/07/27 00:21:19;;;;;;;29.47;1.70;;;;;;;25.12;51.88;99134.16;7315270;19;129535;-32
2023/07/27 00:23:44;;;;;;;21.27;1.33;;;;;;;24.94;51.86;99125.72;7313607;19;129038;-41
2023/07/27 00:26:10;;;;;;;39.27;2.17;;;;;;;24.95;50.86;99132.59;7315204;19;128846;-38
2023/07/27 00:28:35;;;;;;;24.63;1.43;;;;;;;25.12;54.30;99134.16;7315672;19;130066;-32
2023/07/27 00:31:00;;;;;;;69.13;3.87;;;;;;;25.19;54.53;99114.03;7313868;19;129189;-36
2023/07/27 00:33:26;;;;;;;44.50;2.43;;;;;;;25.35;54.94;99135.03;7313820;19;128972;-36
2023/07/27 00:35:58;;;;;;;35.73;2.10;;;;;;;25.44;55.73;99139.22;7315534;19;128830;-35
2023/07/27 00:38:23;;;;;;;33.85;1.92;;;;;;;25.45;55.74;99143.50;7315179;19;129184;-33
2023/07/27 00:40:49;;;;;;;33.50;1.83;;;;;;;25.47;55.41;99134.44;7315142;19;129949;-37
2023/07/27 00:43:15;;;;;;;34.97;2.00;;;;;;;25.48;55.48;99143.16;7314206;19;129048;-38
2023/07/27 00:45:40;;;;;;;10.27;0.70;;;;;;;25.50;55.61;99138.53;7315447;19;129336;-32
2023/07/27 00:48:08;;;;;;;61.83;3.73;;;;;;;25.52;55.96;99132.09;7313803;19;129535;-33
2023/07/27 00:50:37;;;;;;;37.35;2.13;;;;;;;25.52;55.14;99139.16;7313927;19;130390;-36
2023/07/27 00:53:05;;;;;;;67.07;3.85;;;;;;;25.50;55.37;99139.34;7312117;19;130728;-33
2023/07/27 00:55:31;;;;;;;23.38;1.38;;;;;;;25.52;55.70;99139.16;7315720;19;128960;-36
2023/07/27 00:57:57;;;;;;;29.43;1.67;;;;;;;25.50;55.93;99128.81;7313586;19;129143;-36
2023/07/27 01:00:23;;;;;;;41.35;2.25;;;;;;;25.35;53.14;99135.03;7314191;19;130465;-38
2023/07/27 01:02:48;;;;;;;57.00;3.00;;;;;;;25.01;51.83;99137.97;7313708;19;130891;-32
2023/07/27 01:05:16;;;;;;;55.70;3.30;;;;;;;24.96;51.17;99144.72;7313959;19;130982;-34
2023/07/27 01:07:41;;;;;;;19.83;1.27;;;;;;;24.96;51.67;99134.22;7314193;19;129060;-33
2023/07/27 01:10:07;;;;;;;63.17;3.67;;;;;;;25.19;54.67;99135.06;7312974;19;130279;-36
2023/07/27 01:12:39;;;;;;;29.90;1.60;;;;;;;25.33;55.59;99127.28;7313295;19;129180;-36
2023/07/27 01:15:13;;;;;;;30.42;1.70;;;;;;;25.39;55.80;99136.28;7316015;19;129388;-35
2023/07/27 01:17:56;;;;;;;24.40;1.52;;;;;;;25.42;55.64;99131.50;7312568;19;130226;-37
2023/07/27 01:20:50;;;;;;;67.10;4.00;;;;;;;25.45;56.00;99130.34;7312930;19;129795;-33
2023/07/27 01:23:44;;;;;;;77.93;4.40;;;;;;;25.39;55.71;99104.72;7312455;19;129606;-32
2023/07/27 01:26:18;;;;;;;37.85;2.17;;;;;;;25.46;55.55;99124.91;7313972;19;128885;-38
2023/07/27 01:29:20;;;;;;;25.83;1.50;;;;;;;25.41;55.88;99103.56;7312720;19;129089;-37
2023/07/27 01:31:49;;;;;;;29.23;1.65;;;;;;;25.49;55.57;99116.66;7313045;19;131517;-33
2023/07/27 01:34:26;;;;;;;43.67;2.60;;;;;;;25.51;56.34;99119.09;7310355;19;128992;-37
2023/07/27 01:36:58;;;;;;;31.23;1.83;;;;;;;25.51;56.11;99119.09;7314740;19;129284;-32
2023/07/27 01:39:26;;;;;;;67.88;3.85;;;;;;;25.51;55.84;99113.84;7312137;19;130225;-35
2023/07/27 01:41:53;;;;;;;34.45;1.92;;;;;;;25.27;52.34;99121.88;7313459;19;129637;-37
2023/07/27 01:44:25;;;;;;;38.42;2.33;;;;;;;25.02;52.12;99123.84;7310762;19;128822;-32
2023/07/27 01:46:52;;;;;;;15.70;1.00;;;;;;;24.97;51.44;99126.19;7313795;19;129719;-36
2023/07/27 01:49:19;;;;;;;34.03;2.00;;;;;;;25.00;53.45;99125.00;7312452;19;130094;-38
2023/07/27 01:51:46;;;;;;;37.60;2.13;;;;;;;25.22;54.46;99130.28;7313160;19;130787;-33
2023/07/27 01:54:12;;;;;;;;;;;;;;;25.42;54.92;99118.34;7312484;19;129099;-35
2023/07/27 01:56:38;;;;;;;30.27;1.77;;;;;;;25.42;54.84;99120.19;7313403;19;128804;-35
2023/07/27 01:59:06;;;;;;;28.53;1.63;;;;;;;25.42;55.00;99114.91;7313284;19;130583;-33
2023/07/27 02:01:32;;;;;;;75.55;4.30;;;;;;;25.32;55.05;99099.31;7310885;19;130482;-30
2023/07/27 02:03:58;;;;;;;31.17;1.73;;;;;;;25.44;55.70;99115.53;7311673;19;128862;-36
2023/07/27 02:06:23;;;;;;;43.47;2.57;;;;;;;25.46;55.85;99106.47;7312368;19;129774;-34
2023/07/27 02:08:49;;;;;;;43.97;2.30;;;;;;;25.47;55.35;99115.16;7312406;19;131657;-32
2023/07/27 02:11:17;;;;;;;48.43;2.70;;;;;;;25.50;56.00;99117.47;7312496;19;130047;-36
2023/07/27 02:13:59;;;;;;;51.92;2.95;;;;;;;25.50;56.09;99110.38;7310173;19;128817;-34
2023/07/27 02:16:30;;;;;;;29.17;1.65;;;;;;;25.52;56.08;99112.84;7312437;19;129222;-40
2023/07/27 02:18:58;;;;;;;45.22;2.47;;;;;;;25.51;56.29;99103.31;7311686;19;129137;-35
2023/07/27 02:21:25;;;;;;;40.72;2.40;;;;;;;25.44;53.15;99107.63;7312357;19;129709;-37
2023/07/27 02:23:52;;;;;;;52.65;2.83;;;;;;;25.03;51.88;99104.44;7310990;19;129222;-36
2023/07/27 02:26:17;;;;;;;32.35;1.83;;;;;;;24.93;51.20;99108.25;7312547;19;129179;-34
2023/07/27 02:28:43;;;;;;;42.83;2.70;;;;;;;24.97;51.60;99107.78;7310139;19;129044;-33
2023/07/27 02:31:08;;;;;;;48.07;2.80;;;;;;;25.19;54.44;99109.59;7311789;19;130013;-36
2023/07/27 02:33:34;;;;;;;49.17;2.80;;;;;;;25.31;55.06;99100.31;7309160;19;128887;-35
2023/07/27 02:35:59;;;;;;;30.83;1.63;;;;;;;25.38;55.01;99101.28;7311701;19;129088;-32
2023/07/27 02:38:24;;;;;;;25.97;1.47;;;;;;;25.42;55.25;99104.38;7311197;19;129093;-36
2023/07/27 02:40:50;;;;;;;46.90;2.73;;;;;;;25.42;55.45;99105.19;7309588;19;130750;-39
2023/07/27 02:43:16;;;;;;;24.07;1.40;;;;;;;25.44;55.55;99105.00;7310672;19;129074;-35
2023/07/27 02:45:41;;;;;;;62.27;3.70;;;;;;;25.45;55.49;99110.09;7310353;19;129247;-33
2023/07/27 02:48:06;;;;;;;8.40;0.60;;;;;;;25.47;55.76;99113.38;7310981;19;129070;-31
2023/07/27 02:50:32;;;;;;;44.40;2.43;;;;;;;25.47;55.70;99108.09;7311490;19;130267;-30
2023/07/27 02:52:57;;;;;;;25.57;1.50;;;;;;;25.47;55.65;99110.75;7309798;19;129036;-35
2023/07/27 02:55:22;;;;;;;27.37;1.60;;;;;;;25.49;56.11;99105.28;7311792;19;129534;-35
2023/07/27 02:57:47;;;;;;;46.77;2.97;;;;;;;25.42;56.00;99094.66;7309239;19;129101;-36
2023/07/27 03:00:13;;;;;;;51.00;2.83;;;;;;;25.23;52.84;99110.06;7311220;19;129067;-33
2023/07/27 03:02:38;;;;;;;31.93;1.87;;;;;;;24.95;51.97;99107.13;7310210;19;128850;-39
2023/07/27 03:05:05;;;;;;;6.30;0.40;;;;;;;24.90;51.58;99106.81;7310815;19;128930;-36
2023/07/27 03:07:31;;;;;;;25.10;1.50;;;;;;;24.93;53.96;99109.09;7309774;19;129059;-34
2023/07/27 03:09:56;;;;;;;59.60;3.33;;;;;;;25.09;54.70;99087.94;7310304;19;129238;-32
2023/07/27 03:12:22;;;;;;;37.90;2.00;;;;;;;25.33;55.28;99105.38;7310147;19;129407;-35
2023/07/27 03:14:47;;;;;;;66.30;3.87;;;;;;;25.30;54.95;99084.69;7314051;19;129371;-35
2023/07/27 03:17:12;;;;;;;28.03;1.60;;;;;;;25.43;55.19;99095.47;7316766;19;131383;-33
2023/07/27 03:19:38;;;;;;;57.93;3.07;;;;;;;25.45;55.65;99101.41;7319070;19;130698;-36
2023/07/27 03:22:04;;;;;;;30.38;1.83;;;;;;;25.45;55.40;99098.75;7317726;19;129627;-33
2023/07/27 03:24:30;;;;;;;27.53;1.67;;;;;;;25.47;55.11;99102.00;7315602;19;129238;-36
2023/07/27 03:26:55;;;;;;;57.63;3.37;;;;;;;25.49;55.78;99100.03;7316196;19;129573;-43
2023/07/27 03:29:20;;;;;;;24.60;1.40;;;;;;;25.50;55.64;99104.31;7316837;19;129090;-35
2023/07/27 03:31:46;;;;;;;29.20;1.67;;;;;;;25.49;55.28;99106.13;7316732;19;128997;-37
2023/07/27 03:34:11;;;;;;;24.03;1.33;;;;;;;25.51;55.84;99103.31;7314536;19;129701;-30
2023/07/27 03:36:37;;;;;;;37.87;2.23;;;;;;;25.50;55.78;99104.31;7316620;19;130908;-33
2023/07/27 03:39:02;;;;;;;54.93;3.27;;;;;;;25.51;55.68;99103.31;7315725;19;130160;-35
2023/07/27 03:41:27;;;;;;;35.40;1.93;;;;;;;25.10;51.58;99107.19;7317206;19;129228;-34
2023/07/27 03:43:53;;;;;;;44.50;2.63;;;;;;;24.97;51.14;99101.69;7314056;19;128949;-30
2023/07/27 03:46:18;;;;;;;44.73;2.37;;;;;;;24.96;51.15;99092.97;7316520;19;129494;-37
2023/07/27 03:48:48;;;;;;;24.97;1.33;;;;;;;25.07;54.23;99099.66;7316171;19;129568;-34
2023/07/27 03:51:13;;;;;;;35.78;2.20;;;;;;;25.23;55.25;99094.28;7315670;19;128851;-34
2023/07/27 03:53:39;;;;;;;36.23;2.07;;;;;;;25.34;55.00;99096.50;7314936;19;128954;-37
2023/07/27 03:56:05;;;;;;;65.27;3.67;;;;;;;25.38;55.23;99095.19;7315666;19;129075;-35
2023/07/27 03:58:30;;;;;;;33.47;1.90;;;;;;;25.30;55.53;99079.44;7316243;19;130308;-38
2023/07/27 04:00:56;;;;;;;37.77;2.17;;;;;;;25.43;55.77;99100.75;7315921;19;128860;-35
2023/07/27 04:03:22;;;;;;;22.70;1.27;;;;;;;25.43;55.36;99101.56;7314556;19;129161;-28
2023/07/27 04:05:47;;;;;;;41.60;2.37;;;;;;;25.43;55.33;99095.47;7315978;19;129057;-36
2023/07/27 04:08:12;;;;;;;52.87;3.40;;;;;;;25.40;55.77;99085.31;7315620;19;129669;-36
2023/07/27 04:10:39;;;;;;;27.40;1.60;;;;;;;25.45;55.90;99101.41;7317078;19;129369;-34
2023/07/27 04:13:04;;;;;;;31.88;1.83;;;;;;;25.45;55.80;99090.88;7314777;19;129070;-36
2023/07/27 04:15:30;;;;;;;45.27;2.53;;;;;;;25.46;55.77;99089.84;7316612;19;129503;-34
2023/07/27 04:17:56;;;;;;;34.97;2.10;;;;;;;25.46;56.31;99095.13;7316357;19;130629;-33
2023/07/27 04:20:21;;;;;;;89.33;4.97;;;;;;;25.25;52.95;99103.66;7315113;19;129532;-33
2023/07/27 04:22:46;;;;;;;28.47;1.60;;;;;;;24.95;51.77;99095.78;7316722;19;129518;-30
2023/07/27 04:25:12;;;;;;;34.13;1.80;;;;;;;24.82;51.97;99090.25;7313604;19;130127;-38
2023/07/27 04:27:37;;;;;;;27.73;1.53;;;;;;;24.89;51.70;99107.78;7314473;19;130791;-37
2023/07/27 04:30:03;;;;;;;24.93;1.40;;;;;;;25.15;54.82;99103.06;7316129;19;129349;-33
2023/07/27 04:32:28;;;;;;;71.63;3.97;;;;;;;25.28;54.72;99107.72;7312432;19;129378;-33
2023/07/27 04:34:54;;;;;;;32.10;1.77;;;;;;;25.34;55.00;99101.75;7316268;19;130107;-36
2023/07/27 04:37:20;;;;;;;32.67;1.93;;;;;;;25.38;55.31;99103.91;7315658;19;130897;-37
2023/07/27 04:39:46;;;;;;;;;;;;;;;25.49;55.32;99097.41;7316567;19;129524;-38
2023/07/27 04:42:11;;;;;;;71.77;3.93;;;;;;;25.43;55.60;99100.75;7314914;19;129318;-35
2023/07/27 04:44:36;;;;;;;36.33;2.13;;;;;;;25.43;55.46;99085.78;7312499;19;129520;-35
2023/07/27 04:47:01;;;;;;;48.30;3.07;;;;;;;25.44;55.17;99100.56;7314814;19;129380;-33
2023/07/27 04:49:27;;;;;;;34.60;1.93;;;;;;;25.46;55.60;99105.66;7315156;19;130517;-34
2023/07/27 04:51:52;;;;;;;73.43;4.13;;;;;;;25.45;55.64;99104.03;7314057;19;129313;-35
2023/07/27 04:54:19;;;;;;;20.37;1.23;;;;;;;25.46;55.60;99105.66;7313138;19;130783;-37
2023/07/27 04:56:44;;;;;;;38.97;2.25;;;;;;;25.39;55.95;99095.00;7314943;19;130649;-40
2023/07/27 04:59:10;;;;;;;26.23;1.63;;;;;;;25.47;56.02;99107.28;7314334;19;128861;-34
2023/07/27 05:01:35;;;;;;;44.90;2.37;;;;;;;25.15;51.96;99102.22;7314812;19;128742;-37
2023/07/27 05:04:00;;;;;;;60.83;3.57;;;;;;;24.94;52.02;99096.78;7313211;19;130458;-30
2023/07/27 05:06:26;;;;;;;24.77;1.37;;;;;;;24.87;51.63;99094.03;7314614;19;130336;-39
2023/07/27 05:08:51;;;;;;;13.57;0.80;;;;;;;24.98;54.75;99095.41;7313777;19;129265;-36
2023/07/27 05:11:16;;;;;;;63.67;3.63;;;;;;;25.19;55.21;99092.97;7313720;19;131473;-38
2023/07/27 05:13:42;;;;;;;28.00;1.73;;;;;;;25.31;54.71;99096.84;7312273;19;130013;-32
2023/07/27 05:16:07;;;;;;;58.80;3.37;;;;;;;25.35;55.65;99087.66;7313431;19;129235;-35
2023/07/27 05:18:32;;;;;;;20.77;1.23;;;;;;;25.37;55.75;99091.72;7313346;19;129181;-35
2023/07/27 05:20:58;;;;;;;42.80;2.43;;;;;;;25.39;55.80;99089.75;7313560;19;129118;-31
2023/07/27 05:23:24;;;;;;;63.30;3.77;;;;;;;25.38;55.41;99069.69;7312140;19;129159;-38
2023/07/27 05:25:49;;;;;;;29.07;1.67;;;;;;;25.33;55.50;99064.13;7315175;19;129782;-33
2023/07/27 05:28:14;;;;;;;49.97;2.73;;;;;;;25.44;55.49;99070.78;7314920;19;130801;-30
2023/07/27 05:30:42;;;;;;;29.67;1.77;;;;;;;25.43;55.90;99075.25;7315356;19;129478;-31
2023/07/27 05:33:07;;;;;;;26.52;1.55;;;;;;;25.40;56.26;99070.31;7312380;19;129237;-38
2023/07/27 05:35:33;;;;;;;61.70;3.70;;;;;;;25.42;56.18;99072.81;7313946;19;130316;-33
2023/07/27 05:37:58;;;;;;;34.43;1.93;;;;;;;25.42;55.47;99070.16;7313827;19;128981;-35
2023/07/27 05:40:23;;;;;;;29.60;1.60;;;;;;;25.41;55.80;99068.50;7315069;19;131266;-34
2023/07/27 05:42:49;;;;;;;46.80;2.80;;;;;;;24.94;52.43;99073.91;7312282;19;130380;-35
2023/07/27 05:45:14;;;;;;;9.23;0.73;;;;;;;24.83;51.75;99070.84;7313749;19;129336;-34
2023/07/27 05:47:39;;;;;;;62.23;3.43;;;;;;;24.71;51.77;99051.22;7312352;19;129034;-36
2023/07/27 05:50:06;;;;;;;24.73;1.43;;;;;;;25.04;54.61;99071.06;7314484;19;129613;-30
2023/07/27 05:52:32;;;;;;;29.10;1.70;;;;;;;25.22;54.74;99067.13;7312497;19;130177;-36
2023/07/27 05:54:57;;;;;;;55.43;3.27;;;;;;;25.31;55.03;99070.53;7312552;19;131127;-34
2023/07/27 05:57:22;;;;;;;40.13;2.30;;;;;;;25.34;55.51;99062.28;7312011;19;128818;-32
2023/07/27 05:59:48;;;;;;;25.47;1.50;;;;;;;25.36;55.43;99062.97;7314188;19;128991;-38
2023/07/27 06:02:13;;;;;;;25.63;1.43;;;;;;;25.39;55.40;99065.22;7311939;19;129407;-32
2023/07/27 06:04:39;;;;;;;35.97;1.90;;;;;;;25.40;55.14;99065.06;7309181;19;129576;-34
2023/07/27 06:07:05;;;;;;;81.70;5.07;;;;;;;25.40;55.32;99059.00;7312457;19;130518;-35
2023/07/27 06:09:31;;;;;;;25.40;1.43;;;;;;;25.41;55.95;99065.88;7312496;19;128832;-40
2023/07/27 06:11:57;;;;;;;46.07;2.47;;;;;;;25.41;56.17;99055.34;7312051;19;129208;-35
2023/07/27 06:14:22;;;;;;;52.53;3.00;;;;;;;25.41;55.70;99056.19;7309447;19;129140;-33
2023/07/27 06:16:47;;;;;;;43.23;2.40;;;;;;;25.42;55.75;99051.75;7312874;19;128896;-35
2023/07/27 06:19:13;;;;;;;51.07;3.13;;;;;;;25.42;55.88;99057.00;7310596;19;129608;-36
2023/07/27 06:21:38;;;;;;;25.07;1.40;;;;;;;24.99;52.09;99060.25;7312862;19;130283;-35
2023/07/27 06:24:04;;;;;;;30.60;1.67;;;;;;;24.85;51.45;99058.34;7310986;19;130276;-31
2023/07/27 06:26:29;;;;;;;57.30;3.47;;;;;;;24.83;51.31;99061.16;7312775;19;129394;-33
2023/07/27 06:28:54;;;;;;;16.30;1.03;;;;;;;24.99;54.37;99055.78;7312243;19;129500;-36
2023/07/27 06:31:20;;;;;;;25.27;1.53;;;;;;;25.20;55.33;99055.16;7311887;19;130190;-35
2023/07/27 06:33:45;;;;;;;37.07;1.93;;;;;;;25.17;55.04;99032.63;7309696;19;132497;-32
2023/07/27 06:36:17;;;;;;;16.00;1.00;;;;;;;25.32;55.33;99045.88;7312671;19;128851;-38
2023/07/27 06:38:43;;;;;;;60.28;3.70;;;;;;;25.32;54.88;99045.88;7311416;19;128936;-36
2023/07/27 06:41:09;;;;;;;43.83;2.63;;;;;;;25.29;54.78;99030.41;7310753;19;132607;-33
2023/07/27 06:43:34;;;;;;;106.93;6.10;;;;;;;25.39;55.97;99047.63;7308186;19;129713;-37
2023/07/27 06:45:59;;;;;;;44.43;2.57;;;;;;;25.40;55.25;99044.00;7310286;19;129030;-32
2023/07/27 06:48:25;;;;;;;55.03;2.93;;;;;;;25.38;56.10;99035.50;7306300;19;130305;-38
2023/07/27 06:50:50;;;;;;;103.53;6.03;;;;;;;25.40;55.80;99044.00;7308378;19;129120;-37
2023/07/27 06:53:16;;;;;;;109.63;5.83;;;;;;;25.41;55.41;99042.19;7303906;19;130798;-36
2023/07/27 06:55:41;;;;;;;55.10;3.37;;;;;;;25.40;55.81;99040.56;7309818;19;129361;-34
2023/07/27 06:58:06;;;;;;;74.70;4.37;;;;;;;25.42;55.52;99047.28;7309265;19;131050;-34
2023/07/27 07:00:32;;;;;;;31.00;1.93;;;;;;;25.42;55.94;99035.94;7312213;19;130389;-32
2023/07/27 07:02:58;;;;;;;111.40;6.73;;;;;;;24.96;51.87;99037.72;7306691;19;130640;-39
2023/07/27 07:05:23;;;;;;;33.50;1.85;;;;;;;24.72;51.59;99019.50;7312394;19;128894;-34
2023/07/27 07:07:49;;;;;;;48.17;2.53;;;;;;;24.81;51.49;99033.41;7311232;19;129241;-28
2023/07/27 07:10:15;;;;;;;34.53;1.97;;;;;;;25.04;54.28;99042.94;7310159;19;130762;-31
2023/07/27 07:12:40;;;;;;;44.80;2.50;;;;;;;25.19;55.32;99029.84;7310269;19;130528;-31
2023/07/27 07:15:06;;;;;;;58.27;3.53;;;;;;;25.29;54.83;99035.69;7310761;19;129591;-38
2023/07/27 07:17:31;;;;;;;17.80;1.05;;;;;;;25.31;55.21;99029.25;7310538;19;129023;-38
2023/07/27 07:19:57;;;;;;;35.37;2.10;;;;;;;25.35;55.28;99027.13;7309880;19;129155;-31
2023/07/27 07:22:22;;;;;;;30.67;1.63;;;;;;;25.38;55.29;99029.41;7310300;19;130485;-37
2023/07/27 07:24:47;;;;;;;28.80;1.77;;;;;;;25.40;55.87;99032.69;7310313;19;128985;-37
2023/07/27 07:27:13;;;;;;;74.40;4.70;;;;;;;25.39;55.89;99036.28;7308919;19;128894;-34
2023/07/27 07:29:39;;;;;;;41.43;2.27;;;;;;;25.34;55.67;99012.28;7310281;19;129168;-35
2023/07/27 07:32:04;;;;;;;22.97;1.37;;;;;;;25.38;55.67;99024.97;7310718;19;130283;-35
2023/07/27 07:34:33;;;;;;;17.43;1.03;;;;;;;25.40;55.62;99016.88;7306835;19;128903;-31
2023/07/27 07:37:00;;;;;;;34.53;2.03;;;;;;;25.39;56.34;99020.50;7310082;19;129535;-34
2023/07/27 07:39:25;;;;;;;;;;;;;;;25.50;56.10;99017.44;7309498;19;130139;-37
2023/07/27 07:41:50;;;;;;;28.33;1.63;;;;;;;25.16;52.86;99014.41;7310979;19;130368;-35
2023/07/27 07:44:16;;;;;;;67.60;3.83;;;;;;;24.87;52.31;99009.88;7307228;19;129801;-36
2023/07/27 07:46:42;;;;;;;25.83;1.50;;;;;;;24.76;51.08;99006.81;7310775;19;129546;-31
2023/07/27 07:49:07;;;;;;;82.43;4.60;;;;;;;24.83;51.82;99013.81;7308603;19;129602;-35
2023/07/27 07:51:33;;;;;;;33.40;1.97;;;;;;;25.11;54.78;99007.06;7310212;19;129312;-34
2023/07/27 07:53:58;;;;;;;32.40;1.87;;;;;;;25.14;54.59;98998.00;7307931;19;129008;-35
2023/07/27 07:56:23;;;;;;;61.20;3.47;;;;;;;25.30;55.04;99005.75;7309238;19;129096;-36
2023/07/27 07:58:48;;;;;;;83.80;4.87;;;;;;;25.31;55.46;99002.13;7308225;19;130133;-37
2023/07/27 08:01:14;;;;;;;25.20;1.43;;;;;;;25.23;55.88;98978.50;7316710;19;129377;-34
2023/07/27 08:03:39;;;;;;;34.40;2.00;;;;;;;25.37;55.47;99001.47;7314553;19;129877;-37
2023/07/27 08:06:07;;;;;;;41.70;2.33;;;;;;;25.39;55.46;98991.53;7316926;19;129293;-29
2023/07/27 08:08:33;;;;;;;61.38;3.67;;;;;;;25.36;55.96;98984.84;7315362;19;130103;-33
2023/07/27 08:11:02;;;;;;;26.30;1.47;;;;;;;25.42;55.78;98980.69;7316860;19;129646;-36
2023/07/27 08:13:28;;;;;;;37.25;2.20;;;;;;;25.42;56.00;98985.94;7312762;19;129771;-35
2023/07/27 08:15:54;;;;;;;34.17;1.77;;;;;;;25.42;55.67;98989.38;7316281;19;129305;-38
2023/07/27 08:18:20;;;;;;;50.77;2.73;;;;;;;25.40;55.98;98980.03;7315971;19;130339;-32
2023/07/27 08:20:57;;;;;;;38.90;2.33;;;;;;;25.44;56.31;98976.03;7314406;19;129090;-40
2023/07/27 08:23:22;;;;;;;25.20;1.37;;;;;;;25.01;52.68;98984.59;7315455;19;130368;-36
2023/07/27 08:25:48;;;;;;;37.87;2.20;;;;;;;24.88;51.99;98979.94;7314233;19;130392;-35
2023/07/27 08:28:13;;;;;;;45.13;2.35;;;;;;;24.79;51.12;98970.47;7315647;19;130139;-35
2023/07/27 08:30:41;;;;;;;61.33;3.77;;;;;;;24.96;55.31;98963.28;7315005;19;130585;-31
2023/07/27 08:33:06;;;;;;;25.27;1.48;;;;;;;25.15;54.68;98965.44;7314489;19;129571;-32
2023/07/27 08:35:32;;;;;;;24.63;1.40;;;;;;;25.24;54.64;98965.16;7315213;19;129358;-33
2023/07/27 08:37:57;;;;;;;44.47;2.43;;;;;;;25.28;55.20;98955.13;7314177;19;129841;-34
2023/07/27 08:40:22;;;;;;;22.07;1.33;;;;;;;25.31;55.16;98954.75;7316647;19;130620;-34
2023/07/27 08:42:49;;;;;;;69.40;3.97;;;;;;;25.31;55.83;98960.00;7313372;19;129125;-35
2023/07/27 08:45:20;;;;;;;52.07;2.63;;;;;;;25.34;55.79;98965.75;7314810;19;129413;-33
2023/07/27 08:47:47;;;;;;;63.17;3.45;;;;;;;25.37;56.14;98959.34;7313261;19;130546;-37
2023/07/27 08:50:13;;;;;;;45.92;2.58;;;;;;;25.38;55.94;98955.72;7316243;19;129740;-32
2023/07/27 08:52:39;;;;;;;35.37;1.97;;;;;;;25.36;56.09;98952.44;7315200;19;129931;-35
2023/07/27 08:55:05;;;;;;;25.33;1.40;;;;;;;25.40;55.66;98953.72;7312302;19;129828;-36
2023/07/27 08:57:31;;;;;;;49.13;2.63;;;;;;;25.41;55.37;98944.81;7314890;19;130760;-37
2023/07/27 08:59:57;;;;;;;56.00;3.40;;;;;;;25.40;55.89;98949.25;7315366;19;129149;-38
2023/07/27 09:02:22;;;;;;;17.70;1.00;;;;;;;25.20;52.95;98942.03;7315249;19;129898;-36
2023/07/27 09:04:47;;;;;;;38.00;2.17;;;;;;;24.84;51.96;98930.50;7314513;19;128901;-39
2023/07/27 09:07:13;;;;;;;56.80;3.27;;;;;;;24.87;51.75;98930.16;7314514;19;130396;-42
2023/07/27 09:09:39;;;;;;;23.83;1.37;;;;;;;24.87;51.52;98930.16;7315870;19;129171;-41
2023/07/27 09:12:06;;;;;;;63.97;3.67;;;;;;;25.10;55.06;98939.66;7312232;19;131610;-42
2023/07/27 09:14:36;;;;;;;36.92;2.05;;;;;;;25.22;54.86;98935.59;7312024;19;129029;-41
2023/07/27 09:17:01;;;;;;;56.63;3.35;;;;;;;25.27;55.04;98932.44;7312826;19;130002;-41
2023/07/27 09:19:32;;;;;;;27.77;1.73;;;;;;;25.30;55.41;98926.81;7315295;19;129511;-40
2023/07/27 09:21:57;;;;;;;33.80;1.98;;;;;;;25.32;55.82;98919.56;7313219;19;129784;-37
2023/07/27 09:24:25;;;;;;;26.20;1.47;;;;;;;25.33;55.12;98914.13;7311303;19;128957;-43
2023/07/27 09:26:52;;;;;;;40.08;2.28;;;;;;;25.37;55.48;98917.25;7313492;19;130110;-42
2023/07/27 09:29:19;;;;;;;40.83;2.38;;;;;;;25.36;55.31;98907.69;7312589;19;129461;-40
2023/07/27 09:31:50;;;;;;;21.90;1.33;;;;;;;25.39;55.55;98915.22;7314169;19;130245;-42
2023/07/27 09:34:16;;;;;;;34.83;2.05;;;;;;;25.29;56.16;98893.59;7310967;19;131365;-42
2023/07/27 09:36:41;;;;;;;45.53;2.45;;;;;;;25.40;56.34;98911.63;7314072;19;130440;-40
2023/07/27 09:39:07;;;;;;;24.77;1.67;;;;;;;25.39;55.96;98904.69;7313379;19;130150;-40
2023/07/27 09:41:33;;;;;;;25.63;1.42;;;;;;;25.41;55.57;98905.34;7313188;19;130515;-39
2023/07/27 09:43:58;;;;;;;28.30;1.67;;;;;;;24.96;51.69;98889.63;7311395;19;129045;-40
2023/07/27 09:46:25;;;;;;;56.67;3.17;;;;;;;24.83;51.68;98885.00;7312792;19;130069;-38
2023/07/27 09:48:51;;;;;;;70.32;4.15;;;;;;;24.81;51.64;98889.59;7312650;19;129796;-41
2023/07/27 09:51:17;;;;;;;;;;;;;;;25.06;55.45;98898.09;7313994;19;128903;-39
2023/07/27 09:53:44;;;;;;;28.65;1.63;;;;;;;25.16;54.75;98888.13;7312359;19;129019;-37
2023/07/27 09:56:11;;;;;;;66.78;3.53;;;;;;;25.17;55.58;98874.78;7312495;19;131056;-42
2023/07/27 09:58:39;;;;;;;25.77;1.50;;;;;;;25.25;55.22;98880.00;7312470;19;130884;-40
2023/07/27 10:01:04;;;;;;;45.78;2.42;;;;;;;25.21;55.79;98873.44;7312842;19;129601;-41
2023/07/27 10:03:30;;;;;;;45.83;2.80;;;;;;;25.31;55.29;98879.25;7310081;19;129643;-40
2023/07/27 10:05:56;;;;;;;46.27;2.57;;;;;;;25.34;55.93;98880.69;7312467;19;130169;-42
2023/07/27 10:08:22;;;;;;;59.65;3.50;;;;;;;25.36;55.21;98876.13;7311246;19;131107;-41
2023/07/27 10:10:54;;;;;;;28.83;1.57;;;;;;;25.34;55.63;98870.19;7313084;19;129185;-41
2023/07/27 10:13:22;;;;;;;49.40;2.92;;;;;;;25.35;56.16;98877.13;7310132;19;129133;-42
2023/07/27 10:15:51;;;;;;;40.80;2.40;;;;;;;25.27;56.08;98864.03;7312446;19;129213;-39
2023/07/27 10:18:22;;;;;;;58.38;3.53;;;;;;;25.35;55.84;98882.38;7311168;19;130922;-39
2023/07/27 10:20:48;;;;;;;21.77;1.20;;;;;;;25.37;55.79;98872.50;7312757;19;129035;-42
2023/07/27 10:23:17;;;;;;;23.90;1.43;;;;;;;24.92;52.21;98880.47;7307887;19;129020;-41
2023/07/27 10:25:54;;;;;;;41.08;2.38;;;;;;;24.86;52.59;98865.44;7310581;19;130020;-40
2023/07/27 10:28:41;;;;;;;;;;;;;;;24.79;51.06;98875.81;7311938;19;130271;-42
2023/07/27 10:31:25;;;;;;;36.15;2.13;;;;;;;25.04;55.16;98876.44;7312086;19;128950;-40
2023/07/27 10:33:55;;;;;;;45.50;2.30;;;;;;;25.16;55.39;98872.34;7309092;19;129435;-40
2023/07/27 10:36:23;;;;;;;25.85;1.42;;;;;;;25.22;55.24;98871.66;7312454;19;130428;-37
2023/07/27 10:38:53;;;;;;;29.65;1.73;;;;;;;25.16;55.47;98856.56;7310049;19;130292;-42
2023/07/27 10:41:20;;;;;;;24.85;1.48;;;;;;;25.27;55.18;98869.28;7312447;19;131507;-40
2023/07/27 10:44:07;;;;;;;66.85;3.92;;;;;;;25.32;55.85;98866.94;7308892;19;129444;-40
2023/07/27 10:46:36;;;;;;;65.43;3.70;;;;;;;25.33;55.86;98871.19;7310512;19;130325;-40
2023/07/27 10:49:12;;;;;;;37.75;2.17;;;;;;;25.34;56.14;98862.28;7311373;19;130339;-40
2023/07/27 10:51:38;;;;;;;50.85;3.03;;;;;;;25.33;55.49;98860.66;7311297;19;128843;-41
2023/07/27 10:54:04;;;;;;;22.50;1.43;;;;;;;25.34;55.46;98854.38;7309024;19;129251;-41
2023/07/27 10:56:32;;;;;;;26.43;1.53;;;;;;;25.34;56.37;98844.69;7311401;19;129410;-42
2023/07/27 10:59:00;;;;;;;34.53;2.08;;;;;;;25.36;56.28;98839.28;7310512;19;130264;-39
2023/07/27 11:01:30;;;;;;;33.00;1.85;;;;;;;25.35;55.85;98848.97;7312440;19;129039;-39
2023/07/27 11:03:56;;;;;;;28.52;1.77;;;;;;;24.94;52.35;98845.09;7308840;19;129317;-39
2023/07/27 11:06:22;;;;;;;24.67;1.50;;;;;;;24.83;51.89;98834.22;7311632;19;130698;-42
2023/07/27 11:08:48;;;;;;;74.85;4.28;;;;;;;24.81;51.23;98837.00;7310310;19;132210;-41
2023/07/27 11:11:21;;;;;;;12.17;0.73;;;;;;;24.94;55.17;98837.22;7312493;19;128888;-39
2023/07/27 11:13:47;;;;;;;58.00;3.47;;;;;;;25.10;54.96;98825.72;7307832;19;129367;-39
2023/07/27 11:16:13;;;;;;;30.60;1.77;;;;;;;25.18;55.37;98815.13;7310483;19;129738;-39
2023/07/27 11:18:40;;;;;;;47.58;2.58;;;;;;;25.22;55.05;98825.09;7308383;19;131428;-39